createdAt,value
2017-12-19T00:01:01.947Z,88.80
2017-12-19T00:03:29.471Z,88.74
2017-12-19T00:05:56.998Z,88.64
2017-12-19T00:08:24.572Z,88.56
2017-12-19T00:10:52.082Z,88.41
2017-12-19T00:13:19.605Z,88.30
2017-12-19T00:15:47.137Z,88.42
2017-12-19T00:18:14.660Z,88.31
2017-12-19T00:20:42.188Z,88.35
2017-12-19T00:23:09.706Z,88.44
2017-12-19T00:25:37.237Z,88.57
2017-12-19T00:28:04.797Z,88.43
2017-12-19T00:30:32.321Z,88.36
2017-12-19T00:32:59.843Z,88.18
2017-12-19T00:35:27.377Z,88.20
2017-12-19T00:37:54.901Z,88.06
2017-12-19T00:40:22.453Z,87.85
2017-12-19T00:42:49.979Z,87.93
2017-12-19T00:45:17.509Z,87.82
2017-12-19T00:47:45.031Z,88.00
2017-12-19T00:50:12.557Z,87.81
2017-12-19T00:52:40.087Z,87.70
2017-12-19T00:55:07.849Z,87.86
2017-12-19T00:57:35.371Z,87.77
2017-12-19T01:00:02.900Z,87.71
2017-12-19T01:02:30.432Z,87.71
2017-12-19T01:04:57.950Z,87.76
2017-12-19T01:07:25.486Z,87.62
2017-12-19T01:09:53.030Z,87.66
2017-12-19T01:12:20.556Z,87.53
2017-12-19T01:14:48.107Z,87.61
2017-12-19T01:17:15.631Z,87.51
2017-12-19T01:19:43.154Z,87.59
2017-12-19T01:22:10.683Z,87.49
2017-12-19T01:24:38.211Z,87.49
2017-12-19T01:27:06.025Z,87.31
2017-12-19T01:29:34.315Z,87.36
2017-12-19T01:32:01.838Z,87.55
2017-12-19T01:34:29.358Z,87.62
2017-12-19T01:36:56.886Z,87.45
2017-12-19T01:39:24.410Z,87.37
2017-12-19T01:41:52.758Z,87.41
2017-12-19T01:44:20.284Z,87.27
2017-12-19T01:46:47.815Z,87.27
2017-12-19T01:49:15.346Z,87.29
2017-12-19T01:51:42.874Z,87.27
2017-12-19T01:54:10.397Z,87.38
2017-12-19T01:56:37.923Z,87.30
2017-12-19T01:59:05.454Z,87.29
2017-12-19T02:01:32.970Z,87.63
2017-12-19T02:04:00.493Z,87.22
2017-12-19T02:06:28.019Z,87.32
2017-12-19T02:08:55.549Z,87.29
2017-12-19T02:11:23.080Z,87.23
2017-12-19T02:13:50.604Z,87.33
2017-12-19T02:16:18.132Z,87.40
2017-12-19T02:18:45.654Z,87.56
2017-12-19T02:21:13.181Z,87.44
2017-12-19T02:23:40.699Z,87.47
2017-12-19T02:26:08.225Z,87.30
2017-12-19T02:28:35.732Z,87.32
2017-12-19T02:31:03.244Z,87.31
2017-12-19T02:33:30.784Z,87.27
2017-12-19T02:35:58.307Z,87.31
2017-12-19T02:38:25.826Z,87.20
2017-12-19T02:40:53.357Z,87.23
2017-12-19T02:43:21.738Z,87.18
2017-12-19T02:45:53.243Z,87.26
2017-12-19T02:48:20.779Z,87.26
2017-12-19T02:50:48.302Z,87.36
2017-12-19T02:53:15.835Z,87.51
2017-12-19T02:55:43.423Z,87.32
2017-12-19T02:58:10.910Z,87.26
2017-12-19T03:00:38.457Z,87.27
2017-12-19T03:03:05.998Z,87.25
2017-12-19T03:05:33.531Z,86.99
2017-12-19T03:08:01.050Z,87.27
2017-12-19T03:10:28.574Z,87.12
2017-12-19T03:12:56.109Z,87.20
2017-12-19T03:15:23.644Z,87.32
2017-12-19T03:17:51.191Z,87.37
2017-12-19T03:20:18.713Z,87.31
2017-12-19T03:22:46.247Z,87.31
2017-12-19T03:25:13.766Z,87.34
2017-12-19T03:27:41.290Z,87.29
2017-12-19T03:30:08.820Z,87.38
2017-12-19T03:32:37.950Z,87.50
2017-12-19T03:35:05.474Z,87.28
2017-12-19T03:37:33.037Z,87.41
2017-12-19T03:40:00.568Z,87.40
2017-12-19T03:42:28.118Z,87.46
2017-12-19T03:44:55.641Z,87.51
2017-12-19T03:47:23.172Z,87.43
2017-12-19T03:49:50.699Z,87.52
2017-12-19T03:52:18.226Z,87.37
2017-12-19T03:54:45.780Z,87.36
2017-12-19T03:57:13.321Z,87.54
2017-12-19T03:59:40.871Z,87.35
2017-12-19T04:02:08.395Z,87.38
2017-12-19T04:04:35.935Z,87.39
2017-12-19T04:07:03.479Z,87.42
2017-12-19T04:09:31.008Z,87.27
2017-12-19T04:11:58.530Z,87.47
2017-12-19T04:14:26.091Z,87.48
2017-12-19T04:16:53.617Z,87.38
2017-12-19T04:19:21.145Z,87.32
2017-12-19T04:21:48.671Z,87.33
2017-12-19T04:24:16.199Z,87.18
2017-12-19T04:26:43.723Z,87.37
2017-12-19T04:29:11.252Z,87.33
2017-12-19T04:31:38.794Z,87.45
2017-12-19T04:34:06.330Z,87.53
2017-12-19T04:36:33.857Z,87.70
2017-12-19T04:39:01.388Z,87.59
2017-12-19T04:41:28.939Z,87.75
2017-12-19T04:43:56.470Z,87.51
2017-12-19T04:46:23.999Z,87.55
2017-12-19T04:48:51.522Z,87.70
2017-12-19T04:51:19.059Z,87.56
2017-12-19T04:53:46.597Z,87.62
2017-12-19T04:56:14.163Z,87.42
2017-12-19T04:58:41.691Z,87.64
2017-12-19T05:01:09.220Z,87.37
2017-12-19T05:03:36.746Z,87.35
2017-12-19T05:06:04.266Z,87.39
2017-12-19T05:08:31.790Z,87.43
2017-12-19T05:10:59.320Z,87.54
2017-12-19T05:13:26.845Z,87.52
2017-12-19T05:15:54.366Z,87.50
2017-12-19T05:18:21.891Z,87.41
2017-12-19T05:20:49.423Z,87.25
2017-12-19T05:23:16.957Z,87.20
2017-12-19T05:25:44.503Z,87.28
2017-12-19T05:28:12.050Z,87.21
2017-12-19T05:30:39.590Z,87.13
2017-12-19T05:33:07.128Z,87.12
2017-12-19T05:35:34.653Z,87.08
2017-12-19T05:38:02.179Z,87.14
2017-12-19T05:40:29.721Z,87.03
2017-12-19T05:42:57.250Z,87.24
2017-12-19T05:45:24.780Z,87.16
2017-12-19T05:47:52.325Z,87.35
2017-12-19T05:50:19.859Z,87.37
2017-12-19T05:52:47.387Z,87.39
2017-12-19T05:55:14.908Z,87.45
2017-12-19T05:57:42.436Z,87.47
2017-12-19T06:00:09.968Z,87.66
2017-12-19T06:02:37.489Z,87.71
2017-12-19T06:05:05.012Z,87.70
2017-12-19T06:07:32.542Z,87.50
2017-12-19T06:10:00.089Z,87.48
2017-12-19T06:12:27.618Z,87.56
2017-12-19T06:14:55.148Z,87.40
2017-12-19T06:17:22.669Z,87.42
2017-12-19T06:19:50.192Z,87.53
2017-12-19T06:22:17.725Z,87.55
2017-12-19T06:24:45.254Z,87.44
2017-12-19T06:27:12.784Z,87.50
2017-12-19T06:29:40.302Z,87.57
2017-12-19T06:32:07.823Z,88.09
2017-12-19T06:34:35.349Z,90.33
2017-12-19T06:37:02.879Z,88.49
2017-12-19T06:39:30.401Z,88.52
2017-12-19T06:41:57.921Z,88.23
2017-12-19T06:44:25.460Z,88.40
2017-12-19T06:46:52.976Z,88.45
2017-12-19T06:49:20.495Z,88.50
2017-12-19T06:51:48.038Z,88.23
2017-12-19T06:54:15.567Z,88.16
2017-12-19T06:56:43.099Z,88.62
2017-12-19T06:59:10.672Z,88.30
2017-12-19T07:01:38.208Z,88.55
2017-12-19T07:04:05.732Z,88.30
2017-12-19T07:06:33.250Z,88.28
2017-12-19T07:09:00.793Z,88.00
2017-12-19T07:11:28.323Z,87.85
2017-12-19T07:13:55.855Z,87.90
2017-12-19T07:16:23.382Z,88.05
2017-12-19T07:18:50.906Z,88.00
2017-12-19T07:21:18.425Z,87.96
2017-12-19T07:23:45.952Z,87.92
2017-12-19T07:26:13.486Z,88.02
2017-12-19T07:28:40.997Z,87.95
2017-12-19T07:31:08.527Z,87.83
2017-12-19T07:33:36.044Z,87.79
2017-12-19T07:36:03.576Z,87.85
2017-12-19T07:38:31.103Z,87.85
2017-12-19T07:40:58.642Z,88.00
2017-12-19T07:43:26.177Z,88.01
2017-12-19T07:45:53.706Z,88.16
2017-12-19T07:48:21.229Z,88.18
2017-12-19T07:50:48.752Z,88.12
2017-12-19T07:53:16.274Z,88.10
2017-12-19T07:55:43.797Z,88.20
2017-12-19T07:58:11.330Z,88.31
2017-12-19T08:00:38.845Z,88.63
2017-12-19T08:03:06.385Z,88.27
2017-12-19T08:05:33.907Z,88.48
2017-12-19T08:08:01.436Z,88.83
2017-12-19T08:10:28.967Z,89.20
2017-12-19T08:12:56.492Z,89.08
2017-12-19T08:15:24.017Z,89.28
2017-12-19T08:17:51.543Z,89.11
2017-12-19T08:20:19.086Z,89.21
2017-12-19T08:22:46.623Z,89.53
2017-12-19T08:25:14.151Z,89.77
2017-12-19T08:27:41.694Z,89.71
2017-12-19T08:30:09.226Z,89.62
2017-12-19T08:32:36.755Z,89.45
2017-12-19T08:35:04.273Z,89.63
2017-12-19T08:37:31.810Z,89.42
2017-12-19T08:39:59.337Z,89.66
2017-12-19T08:42:26.866Z,89.47
2017-12-19T08:44:54.409Z,89.37
2017-12-19T08:47:21.939Z,89.55
2017-12-19T08:49:49.466Z,89.54
2017-12-19T08:52:16.991Z,89.41
2017-12-19T08:54:44.515Z,89.21
2017-12-19T08:57:12.044Z,89.02
2017-12-19T08:59:39.575Z,89.36
2017-12-19T09:02:07.099Z,89.34
2017-12-19T09:04:34.626Z,89.01
2017-12-19T09:07:02.150Z,89.09
2017-12-19T09:09:29.671Z,89.14
2017-12-19T09:11:57.198Z,89.36
2017-12-19T09:14:24.735Z,89.21
2017-12-19T09:16:52.253Z,89.48
2017-12-19T09:19:19.775Z,88.99
2017-12-19T09:21:47.316Z,89.29
2017-12-19T09:24:14.875Z,89.42
2017-12-19T09:26:42.416Z,89.49
2017-12-19T09:29:09.974Z,89.70
2017-12-19T09:31:37.507Z,89.51
2017-12-19T09:34:05.045Z,89.50
2017-12-19T09:36:32.562Z,89.15
2017-12-19T09:39:00.090Z,89.30
2017-12-19T09:41:27.614Z,89.72
2017-12-19T09:43:55.152Z,89.63
2017-12-19T09:46:22.687Z,89.31
2017-12-19T09:48:50.211Z,89.22
2017-12-19T09:51:17.753Z,89.58
2017-12-19T09:53:45.278Z,89.44
2017-12-19T09:56:12.803Z,89.07
2017-12-19T09:58:40.327Z,89.42
2017-12-19T10:01:07.854Z,89.38
2017-12-19T10:03:35.382Z,89.33
2017-12-19T10:06:02.905Z,89.24
2017-12-19T10:08:30.426Z,89.43
2017-12-19T10:10:57.952Z,89.38
2017-12-19T10:13:25.472Z,89.41
2017-12-19T10:15:53.006Z,89.26
2017-12-19T10:18:20.539Z,89.34
2017-12-19T10:20:48.056Z,89.52
2017-12-19T10:23:15.582Z,89.36
2017-12-19T10:25:43.237Z,89.76
2017-12-19T10:28:10.774Z,89.81
2017-12-19T10:30:38.294Z,89.77
2017-12-19T10:33:05.876Z,90.09
2017-12-19T10:35:33.412Z,89.80
2017-12-19T10:38:00.941Z,90.01
2017-12-19T10:40:28.468Z,90.00
2017-12-19T10:42:56.001Z,89.73
2017-12-19T10:45:23.567Z,89.69
2017-12-19T10:47:51.082Z,89.89
2017-12-19T10:50:18.610Z,89.84
2017-12-19T10:52:46.136Z,89.52
2017-12-19T10:55:13.667Z,89.50
2017-12-19T10:57:41.187Z,89.56
2017-12-19T11:00:08.711Z,89.55
2017-12-19T11:02:36.230Z,89.27
2017-12-19T11:05:03.780Z,89.32
2017-12-19T11:07:31.308Z,89.58
2017-12-19T11:09:58.849Z,89.20
2017-12-19T11:12:26.369Z,89.04
2017-12-19T11:14:53.897Z,89.19
2017-12-19T11:17:21.418Z,89.47
2017-12-19T11:19:48.946Z,89.51
2017-12-19T11:22:16.480Z,89.32
2017-12-19T11:24:44.018Z,89.50
2017-12-19T11:27:11.551Z,89.59
2017-12-19T11:29:39.091Z,89.79
2017-12-19T11:32:06.909Z,89.49
2017-12-19T11:34:34.492Z,89.88
2017-12-19T11:37:02.059Z,90.09
2017-12-19T11:39:29.580Z,89.91
2017-12-19T11:41:57.104Z,90.02
2017-12-19T11:44:24.623Z,89.86
2017-12-19T11:46:52.153Z,89.89
2017-12-19T11:49:19.674Z,89.82
2017-12-19T11:51:47.231Z,90.09
2017-12-19T11:54:14.749Z,90.13
2017-12-19T11:56:42.270Z,90.18
2017-12-19T11:59:09.801Z,89.84
2017-12-19T12:01:37.322Z,89.86
2017-12-19T12:04:04.882Z,90.25
2017-12-19T12:06:32.413Z,90.17
2017-12-19T12:08:59.944Z,90.06
2017-12-19T12:11:27.469Z,89.68
2017-12-19T12:13:55.031Z,89.96
2017-12-19T12:16:22.543Z,90.19
2017-12-19T12:18:50.559Z,90.34
2017-12-19T12:21:18.087Z,90.37
2017-12-19T12:23:45.605Z,90.21
2017-12-19T12:26:13.131Z,90.61
2017-12-19T12:28:40.678Z,90.14
2017-12-19T12:31:08.207Z,90.78
2017-12-19T12:33:35.737Z,90.74
2017-12-19T12:36:03.261Z,90.47
2017-12-19T12:38:30.790Z,90.87
2017-12-19T12:40:58.314Z,91.04
2017-12-19T12:43:25.830Z,91.02
2017-12-19T12:45:53.364Z,91.29
2017-12-19T12:48:20.899Z,91.70
2017-12-19T12:50:48.422Z,91.19
2017-12-19T12:53:15.949Z,91.58
2017-12-19T12:55:43.485Z,91.82
2017-12-19T12:58:11.013Z,92.07
2017-12-19T13:00:38.549Z,91.88
2017-12-19T13:03:06.075Z,91.81
2017-12-19T13:05:33.607Z,92.21
2017-12-19T13:08:01.125Z,92.04
2017-12-19T13:10:28.652Z,91.93
2017-12-19T13:12:56.182Z,92.16
2017-12-19T13:15:23.702Z,92.20
2017-12-19T13:17:51.218Z,92.04
2017-12-19T13:20:18.744Z,92.24
2017-12-19T13:22:46.307Z,92.41
2017-12-19T13:25:13.834Z,92.59
2017-12-19T13:27:41.430Z,92.06
2017-12-19T13:30:08.961Z,92.30
2017-12-19T13:32:36.484Z,92.25
2017-12-19T13:35:04.005Z,92.66
2017-12-19T13:37:31.529Z,93.07
2017-12-19T13:39:59.061Z,93.06
2017-12-19T13:42:26.580Z,92.76
2017-12-19T13:44:54.106Z,93.15
2017-12-19T13:47:21.657Z,93.11
2017-12-19T13:49:49.204Z,93.14
2017-12-19T13:52:16.821Z,93.53
2017-12-19T13:54:44.395Z,93.50
2017-12-19T13:57:11.922Z,93.70
2017-12-19T13:59:39.443Z,93.76
2017-12-19T14:02:06.981Z,93.74
2017-12-19T14:04:34.518Z,93.92
2017-12-19T14:07:02.148Z,93.98
2017-12-19T14:09:29.682Z,93.63
2017-12-19T14:11:57.286Z,93.85
2017-12-19T14:14:24.833Z,93.78
2017-12-19T14:16:52.356Z,93.70
2017-12-19T14:19:19.916Z,93.87
2017-12-19T14:21:47.446Z,94.02
2017-12-19T14:24:15.025Z,94.15
2017-12-19T14:26:42.549Z,94.03
2017-12-19T14:29:10.239Z,93.64
2017-12-19T14:31:37.793Z,93.59
2017-12-19T14:34:05.350Z,93.63
2017-12-19T14:36:32.881Z,93.63
2017-12-19T14:39:00.422Z,93.72
2017-12-19T14:41:27.970Z,93.81
2017-12-19T14:43:55.527Z,93.65
2017-12-19T14:46:23.072Z,93.59
2017-12-19T14:48:50.609Z,93.72
2017-12-19T14:51:18.161Z,93.64
2017-12-19T14:53:45.728Z,93.80
2017-12-19T14:56:13.250Z,93.62
2017-12-19T14:58:40.770Z,93.58
2017-12-19T15:01:08.298Z,93.39
2017-12-19T15:03:35.830Z,93.25
2017-12-19T15:06:03.386Z,93.46
2017-12-19T15:08:30.915Z,93.46
2017-12-19T15:10:58.473Z,93.30
2017-12-19T15:13:26.005Z,93.49
2017-12-19T15:15:53.530Z,93.19
2017-12-19T15:18:21.046Z,93.05
2017-12-19T15:20:48.584Z,92.80
2017-12-19T15:23:16.098Z,92.93
2017-12-19T15:25:43.618Z,93.32
2017-12-19T15:28:11.158Z,93.27
2017-12-19T15:30:38.683Z,93.25
2017-12-19T15:33:06.203Z,93.02
2017-12-19T15:35:33.734Z,93.24
2017-12-19T15:38:01.263Z,93.16
2017-12-19T15:40:28.785Z,93.24
2017-12-19T15:42:56.310Z,93.05
2017-12-19T15:45:23.836Z,93.08
2017-12-19T15:47:51.381Z,93.00
2017-12-19T15:50:18.970Z,92.83
2017-12-19T15:52:46.502Z,92.65
2017-12-19T15:55:14.024Z,92.66
2017-12-19T15:57:41.569Z,92.63
2017-12-19T16:00:09.085Z,92.57
2017-12-19T16:02:36.612Z,92.38
2017-12-19T16:05:04.141Z,92.35
2017-12-19T16:07:31.655Z,92.24
2017-12-19T17:31:56.251Z,92.57
2017-12-19T17:34:23.777Z,92.86
2017-12-19T17:36:51.306Z,92.28
2017-12-19T17:39:18.835Z,92.32
2017-12-19T17:41:46.379Z,92.46
2017-12-19T17:44:13.902Z,92.15
2017-12-19T17:46:41.434Z,92.04
2017-12-19T17:49:09.398Z,92.20
2017-12-19T17:51:36.934Z,92.20
2017-12-19T17:54:04.491Z,92.28
2017-12-19T17:56:32.020Z,92.13
2017-12-19T17:58:59.538Z,91.90
2017-12-19T18:01:27.049Z,91.98
2017-12-19T18:03:54.590Z,91.87
2017-12-19T18:06:22.128Z,91.74
2017-12-19T18:08:49.669Z,91.66
2017-12-19T18:11:17.201Z,91.57
2017-12-19T18:13:44.727Z,91.30
2017-12-19T18:16:12.263Z,91.36
2017-12-19T18:18:39.811Z,91.09
2017-12-19T18:21:07.339Z,91.09
2017-12-19T18:23:34.862Z,91.11
2017-12-19T18:26:02.401Z,91.29
2017-12-19T18:28:29.944Z,91.21
2017-12-19T18:30:57.475Z,91.05
2017-12-19T18:33:25.003Z,90.84
2017-12-19T18:35:52.539Z,90.83
2017-12-19T18:38:20.069Z,90.75
2017-12-19T18:40:47.600Z,90.70
2017-12-19T18:43:15.126Z,90.60
2017-12-19T18:45:42.680Z,90.71
2017-12-19T18:48:10.223Z,90.80
2017-12-19T18:50:37.768Z,90.82
2017-12-19T18:53:05.290Z,90.60
2017-12-19T18:55:32.879Z,90.43
2017-12-19T18:58:00.411Z,90.34
2017-12-19T19:00:27.974Z,90.33
2017-12-19T19:02:55.502Z,90.30
2017-12-19T19:05:23.139Z,90.28
2017-12-19T19:07:50.684Z,90.46
2017-12-19T19:10:18.210Z,90.45
2017-12-19T19:12:45.737Z,90.43
2017-12-19T19:15:13.359Z,90.64
2017-12-19T19:17:40.891Z,90.64
2017-12-19T19:20:09.311Z,90.74
2017-12-19T19:22:36.861Z,91.05
2017-12-19T19:25:04.390Z,91.01
2017-12-19T19:27:31.920Z,90.88
2017-12-19T19:29:59.447Z,91.11
2017-12-19T19:32:27.252Z,91.13
2017-12-19T19:34:54.824Z,91.37
2017-12-19T19:37:22.434Z,91.52
2017-12-19T19:39:49.966Z,91.41
2017-12-19T19:42:17.493Z,91.33
2017-12-19T19:44:45.041Z,91.22
2017-12-19T19:47:12.590Z,91.24
2017-12-19T19:49:40.129Z,91.37
2017-12-19T19:52:07.662Z,91.45
2017-12-19T19:54:35.196Z,91.61
2017-12-19T19:57:02.725Z,91.85
2017-12-19T19:59:30.245Z,91.86
2017-12-19T20:01:57.757Z,91.60
2017-12-19T20:04:25.302Z,91.54
2017-12-19T20:06:52.828Z,91.46
2017-12-19T20:09:20.351Z,91.69
2017-12-19T20:11:47.885Z,91.59
2017-12-19T20:14:15.498Z,91.66
2017-12-19T20:16:43.019Z,91.83
2017-12-19T20:19:10.577Z,91.79
2017-12-19T20:21:38.099Z,91.69
2017-12-19T20:24:05.632Z,91.65
2017-12-19T20:26:33.174Z,91.41
2017-12-19T20:29:00.712Z,91.42
2017-12-19T20:31:28.252Z,91.38
2017-12-19T20:33:55.787Z,91.26
2017-12-19T20:36:23.310Z,91.48
2017-12-19T20:38:50.828Z,91.51
2017-12-19T20:41:18.360Z,91.87
2017-12-19T20:43:45.915Z,91.68
2017-12-19T20:46:13.449Z,91.68
2017-12-19T20:48:40.978Z,91.91
2017-12-19T20:51:08.515Z,91.64
2017-12-19T20:53:36.043Z,91.62
2017-12-19T20:56:03.575Z,91.72
2017-12-19T20:58:31.100Z,91.59
2017-12-19T21:00:58.629Z,91.48
2017-12-19T21:03:26.150Z,91.47
2017-12-19T21:05:53.673Z,91.42
2017-12-19T21:08:21.194Z,91.57
2017-12-19T21:10:48.722Z,91.67
2017-12-19T21:13:16.247Z,91.76
2017-12-19T21:15:43.769Z,91.84
2017-12-19T21:18:11.299Z,91.62
2017-12-19T21:20:38.830Z,91.57
2017-12-19T21:23:06.370Z,91.47
2017-12-19T21:25:33.897Z,91.41
2017-12-19T21:28:01.504Z,91.84
2017-12-19T21:30:29.026Z,91.89
2017-12-19T21:32:56.555Z,91.73
2017-12-19T21:35:24.079Z,91.65
2017-12-19T21:37:51.612Z,91.52
2017-12-19T21:40:19.149Z,91.40
2017-12-19T21:42:46.692Z,91.38
2017-12-19T21:45:14.218Z,91.57
2017-12-19T21:47:41.773Z,91.51
2017-12-19T21:50:09.306Z,91.53
2017-12-19T21:52:36.829Z,91.74
2017-12-19T21:55:04.353Z,91.67
2017-12-19T21:57:31.957Z,91.71
2017-12-19T21:59:59.509Z,91.71
2017-12-19T22:02:27.122Z,91.90
2017-12-19T22:04:54.655Z,92.05
2017-12-19T22:07:22.223Z,92.04
2017-12-19T22:09:49.815Z,92.00
2017-12-19T22:12:17.342Z,91.79
2017-12-19T22:14:44.868Z,91.57
2017-12-19T22:17:12.397Z,91.65
2017-12-19T22:19:39.988Z,91.64
2017-12-19T22:22:07.514Z,91.66
2017-12-19T22:24:35.153Z,92.18
2017-12-19T22:27:02.695Z,92.13
2017-12-19T22:29:30.302Z,91.94
2017-12-19T22:31:57.821Z,91.86
2017-12-19T22:34:25.390Z,91.76
2017-12-19T22:36:52.929Z,91.72
2017-12-19T22:39:20.470Z,91.75
2017-12-19T22:41:47.994Z,92.04
2017-12-19T22:44:15.560Z,91.88
2017-12-19T22:46:43.154Z,91.95
2017-12-19T22:49:10.702Z,91.85
2017-12-19T22:51:38.293Z,92.13
2017-12-19T22:54:05.869Z,91.94
2017-12-19T22:56:33.460Z,92.25
2017-12-19T22:59:00.995Z,92.12
2017-12-19T23:01:28.527Z,92.21
2017-12-19T23:03:56.054Z,92.13
2017-12-19T23:06:23.599Z,91.95
2017-12-19T23:08:51.153Z,91.45
2017-12-19T23:11:18.669Z,91.53
2017-12-19T23:13:46.299Z,91.02
2017-12-19T23:16:13.830Z,89.35
2017-12-19T23:18:41.360Z,86.98
2017-12-19T23:21:08.877Z,88.02
2017-12-19T23:23:36.426Z,87.07
2017-12-19T23:26:03.984Z,86.88
2017-12-19T23:28:31.647Z,85.78
2017-12-19T23:30:59.182Z,86.39
2017-12-19T23:33:26.753Z,86.64
2017-12-19T23:35:54.475Z,86.71
2017-12-19T23:38:22.012Z,87.12
2017-12-19T23:40:49.590Z,87.17
2017-12-19T23:43:17.161Z,87.97
2017-12-19T23:45:44.719Z,88.53
2017-12-19T23:48:12.259Z,88.97
2017-12-19T23:50:39.783Z,90.41
2017-12-19T23:53:07.324Z,90.63
2017-12-19T23:55:34.960Z,90.93
2017-12-19T23:58:02.529Z,91.01
